CheckWX is a tool to help pilots better visualize weather data.  It is not intended as a substitute for an official pre-flight weather briefing.

19:54:47 UTC

ENCN TAF
Kristiansand Airport
Kjevik, Norway
TAF ENCN 251700Z 2518/2521 06008KT 9999 -RA SCT012 BKN050 TEMPO 2519/2521 SHRA BKN020 SCT030CB

Jun-25@
18:00 UTC

Jun-25 @ 18:00 UTC

Jun-25@
21:00 UTC

Jun-25 @ 21:00 UTC

TAF ENCN 251700Z 2518/2521 06008KT 9999 -RA SCT012 BKN050
Wind
  • 060° at 8 KTS
Conditions
Light Rain
Cloud Levels
  • Scattered at 1,200' AGL
  • Broken at 5,000' AGL

Jun-25@
19:00 UTC

Jun-25 @ 19:00 UTC

Jun-25@
21:00 UTC

Jun-25 @ 21:00 UTC

TEMPO 2519/2521 SHRA BKN020 SCT030CB

Temporary

Temporary Changes expected for less than half the time period

Conditions
Rain
Cloud Levels
  • Broken at 2,000' AGL
  • Scattered at 3,000' AGL